Time;durP1;ratioP1;P1;durP2;ratioP2;P2;SDS_P1;SDS_P2;PMS_P1;PMS_P2;Temp;Humidity;BMP_temperature;BMP_pressure;BME280_temperature;BME280_humidity;BME280_pressure;Samples;Min_cycle;Max_cycle;Signal;HPM_P1;HPM_P2
2022/03/18 00:00:38;;;;;;;63.77;57.57;;;;;;;;;;4994779;28;20437;-64
2022/03/18 00:03:05;;;;;;;61.60;55.90;;;;;;;;;;4995345;28;20467;-62
2022/03/18 00:05:32;;;;;;;63.50;57.50;;;;;;;;;;4995242;28;20178;-63
2022/03/18 00:07:58;;;;;;;62.22;56.28;;;;;;;;;;4995264;28;20186;-63
2022/03/18 00:10:24;;;;;;;62.22;56.55;;;;;;;;;;4994731;28;20740;-63
2022/03/18 00:12:53;;;;;;;58.05;52.55;;;;;;;;;;4995085;28;20189;-63
2022/03/18 00:15:23;;;;;;;60.00;54.40;;;;;;;;;;4994836;28;20175;-63
2022/03/18 00:17:49;;;;;;;65.32;58.92;;;;;;;;;;4994951;28;20167;-63
2022/03/18 00:20:15;;;;;;;66.72;60.42;;;;;;;;;;4994604;28;20194;-63
2022/03/18 00:22:42;;;;;;;65.00;58.40;;;;;;;;;;4994728;28;20182;-63
2022/03/18 00:25:09;;;;;;;64.38;58.38;;;;;;;;;;4994705;28;20413;-63
2022/03/18 00:27:35;;;;;;;64.95;58.13;;;;;;;;;;4994448;28;20542;-63
2022/03/18 00:30:02;;;;;;;64.40;58.00;;;;;;;;;;4994376;28;20202;-63
2022/03/18 00:32:28;;;;;;;64.35;57.85;;;;;;;;;;4994458;28;20174;-63
2022/03/18 00:34:54;;;;;;;64.40;58.20;;;;;;;;;;4994618;28;20758;-63
2022/03/18 00:37:20;;;;;;;61.63;56.13;;;;;;;;;;4994598;28;21041;-63
2022/03/18 00:39:46;;;;;;;54.70;49.70;;;;;;;;;;4994405;28;20233;-63
2022/03/18 00:42:12;;;;;;;65.87;59.07;;;;;;;;;;4994246;28;20475;-63
2022/03/18 00:44:39;;;;;;;69.63;62.83;;;;;;;;;;4993891;28;20417;-62
2022/03/18 00:51:59;;;;;;;65.68;58.97;;;;;;;;;;4994519;28;20178;-63
2022/03/18 00:52:37;;;;;;;66.20;58.97;;;;;;;;;;4994508;28;20546;-63
2022/03/18 00:55:03;;;;;;;64.75;58.08;;;;;;;;;;4994329;28;20190;-63
2022/03/18 00:57:29;;;;;;;67.95;61.05;;;;;;;;;;4994240;28;20226;-63
2022/03/18 00:59:55;;;;;;;67.97;60.90;;;;;;;;;;4994034;28;20194;-62
2022/03/18 01:02:21;;;;;;;64.03;57.53;;;;;;;;;;4994055;28;20420;-63
2022/03/18 01:04:49;;;;;;;68.87;61.80;;;;;;;;;;4994295;28;20422;-63
2022/03/18 01:07:15;;;;;;;64.28;57.67;;;;;;;;;;4994636;28;20424;-63
2022/03/18 01:09:41;;;;;;;67.83;60.63;;;;;;;;;;4994110;28;20205;-63
2022/03/18 01:12:08;;;;;;;66.57;59.57;;;;;;;;;;4993773;28;20442;-62
2022/03/18 01:14:33;;;;;;;61.22;55.25;;;;;;;;;;4993896;28;20424;-62
2022/03/18 01:16:59;;;;;;;64.13;57.83;;;;;;;;;;4993916;28;20257;-63
2022/03/18 01:19:25;;;;;;;61.43;55.57;;;;;;;;;;4993634;28;20418;-63
2022/03/18 01:21:51;;;;;;;59.70;54.23;;;;;;;;;;4993498;28;20587;-63
2022/03/18 01:24:17;;;;;;;65.63;58.77;;;;;;;;;;4993718;28;20432;-63
2022/03/18 01:26:43;;;;;;;69.00;61.80;;;;;;;;;;4993655;28;20932;-63
2022/03/18 01:29:10;;;;;;;68.60;61.27;;;;;;;;;;4993550;28;20457;-62
2022/03/18 01:31:36;;;;;;;71.68;60.03;;;;;;;;;;4993475;28;21073;-63
2022/03/18 01:34:02;;;;;;;64.43;57.73;;;;;;;;;;4993436;28;20265;-63
2022/03/18 01:36:28;;;;;;;67.72;60.63;;;;;;;;;;4993460;28;20487;-62
2022/03/18 01:38:54;;;;;;;67.18;60.28;;;;;;;;;;4993482;28;20189;-63
2022/03/18 01:41:21;;;;;;;69.40;60.03;;;;;;;;;;4993017;28;20539;-63
2022/03/18 01:43:47;;;;;;;69.88;61.80;;;;;;;;;;4993329;28;20412;-62
2022/03/18 01:46:14;;;;;;;72.22;61.80;;;;;;;;;;4998978;28;20189;-63
2022/03/18 01:48:41;;;;;;;80.50;66.63;;;;;;;;;;4998484;28;20288;-63
2022/03/18 01:51:08;;;;;;;73.15;60.78;;;;;;;;;;4993047;28;20225;-62
2022/03/18 01:53:35;;;;;;;69.22;61.72;;;;;;;;;;4993239;28;20276;-63
2022/03/18 01:56:01;;;;;;;71.22;61.42;;;;;;;;;;4992257;28;20642;-63
2022/03/18 01:58:27;;;;;;;73.20;60.87;;;;;;;;;;4993082;28;20224;-62
2022/03/18 02:00:53;;;;;;;65.43;58.43;;;;;;;;;;4992772;28;20971;-63
2022/03/18 02:03:19;;;;;;;70.10;62.63;;;;;;;;;;4993007;28;20762;-62
2022/03/18 02:05:45;;;;;;;62.00;56.08;;;;;;;;;;4993079;28;20501;-63
2022/03/18 02:08:11;;;;;;;66.17;59.47;;;;;;;;;;4992936;28;20654;-62
2022/03/18 02:10:37;;;;;;;62.87;56.37;;;;;;;;;;4992396;28;20833;-63
2022/03/18 02:13:03;;;;;;;69.53;62.38;;;;;;;;;;4992834;28;20894;-63
2022/03/18 02:15:29;;;;;;;62.33;56.33;;;;;;;;;;4992734;28;20642;-63
2022/03/18 02:17:55;;;;;;;61.27;55.17;;;;;;;;;;4992687;28;20193;-65
2022/03/18 02:20:21;;;;;;;64.70;58.37;;;;;;;;;;4992342;28;20430;-63
2022/03/18 02:22:47;;;;;;;65.53;58.53;;;;;;;;;;4992641;28;20433;-64
2022/03/18 02:25:13;;;;;;;66.63;58.37;;;;;;;;;;4992598;28;20211;-63
2022/03/18 02:27:40;;;;;;;65.47;58.47;;;;;;;;;;4992576;28;20779;-63
2022/03/18 02:30:07;;;;;;;67.97;60.90;;;;;;;;;;4992156;28;20218;-62
2022/03/18 02:32:34;;;;;;;64.90;58.55;;;;;;;;;;4992457;28;20170;-63
2022/03/18 02:35:01;;;;;;;57.65;52.65;;;;;;;;;;4992573;28;20245;-63
2022/03/18 02:37:27;;;;;;;57.63;52.33;;;;;;;;;;4992498;28;20189;-63
2022/03/18 02:39:53;;;;;;;48.60;44.88;;;;;;;;;;4992300;28;20194;-63
2022/03/18 02:42:19;;;;;;;60.77;54.97;;;;;;;;;;4992168;28;20178;-62
2022/03/18 02:44:45;;;;;;;56.75;51.55;;;;;;;;;;4992262;28;20413;-62
2022/03/18 02:47:11;;;;;;;58.30;52.80;;;;;;;;;;4991996;28;20543;-62
2022/03/18 02:49:37;;;;;;;65.17;58.57;;;;;;;;;;4992034;28;20460;-62
2022/03/18 02:52:03;;;;;;;56.70;51.57;;;;;;;;;;4992136;28;20413;-62
2022/03/18 02:54:29;;;;;;;58.22;53.03;;;;;;;;;;4992233;28;20413;-64
2022/03/18 02:56:55;;;;;;;51.77;47.13;;;;;;;;;;4992307;28;20174;-63
2022/03/18 02:59:21;;;;;;;61.63;55.83;;;;;;;;;;4992147;28;20406;-62
2022/03/18 03:01:47;;;;;;;55.25;50.47;;;;;;;;;;4992078;28;20414;-64
2022/03/18 03:04:14;;;;;;;57.10;51.80;;;;;;;;;;4992107;28;20183;-63
2022/03/18 03:09:25;;;;;;;57.13;51.97;;;;;;;;;;4996069;28;20224;-63
2022/03/18 03:11:51;;;;;;;56.90;51.50;;;;;;;;;;4995986;28;20329;-63
2022/03/18 03:14:17;;;;;;;49.42;45.58;;;;;;;;;;4996063;28;20405;-63
2022/03/18 03:16:43;;;;;;;41.40;38.40;;;;;;;;;;4995946;28;20664;-63
2022/03/18 03:19:09;;;;;;;24.10;22.90;;;;;;;;;;4996080;28;20468;-63
2022/03/18 03:21:35;;;;;;;32.88;30.90;;;;;;;;;;4995715;28;20597;-63
2022/03/18 03:24:01;;;;;;;37.35;34.88;;;;;;;;;;4995996;28;20178;-63
2022/03/18 03:26:27;;;;;;;45.23;41.83;;;;;;;;;;4995892;28;20180;-63
2022/03/18 03:28:53;;;;;;;49.95;45.75;;;;;;;;;;4995783;28;20956;-63
2022/03/18 03:31:19;;;;;;;52.93;48.20;;;;;;;;;;5005349;28;20264;-62
2022/03/18 03:33:46;;;;;;;64.47;58.07;;;;;;;;;;5015387;28;20411;-63
2022/03/18 03:36:12;;;;;;;54.67;49.95;;;;;;;;;;5015688;28;20415;-63
2022/03/18 03:38:38;;;;;;;59.28;53.67;;;;;;;;;;5015262;28;20228;-62
2022/03/18 03:41:04;;;;;;;55.10;50.20;;;;;;;;;;5014934;28;20224;-62
2022/03/18 03:43:30;;;;;;;57.97;52.67;;;;;;;;;;4997661;28;20419;-63
2022/03/18 03:45:56;;;;;;;61.20;55.27;;;;;;;;;;5015120;28;20260;-63
2022/03/18 03:48:22;;;;;;;50.40;46.20;;;;;;;;;;5015186;28;20408;-64
2022/03/18 03:50:48;;;;;;;53.28;48.75;;;;;;;;;;5014919;28;20198;-63
2022/03/18 03:53:14;;;;;;;48.80;44.87;;;;;;;;;;5015046;28;20248;-63
2022/03/18 03:55:40;;;;;;;47.55;43.78;;;;;;;;;;5015020;28;20886;-63
2022/03/18 03:58:07;;;;;;;56.77;51.80;;;;;;;;;;5014942;28;20176;-64
2022/03/18 04:00:33;;;;;;;58.88;53.70;;;;;;;;;;5014491;28;20432;-63
2022/03/18 04:02:59;;;;;;;42.78;39.65;;;;;;;;;;5014934;28;20193;-64
2022/03/18 04:05:26;;;;;;;64.00;57.80;;;;;;;;;;5014969;28;20177;-63
2022/03/18 04:07:52;;;;;;;61.42;55.53;;;;;;;;;;5014973;28;20556;-63
2022/03/18 04:10:19;;;;;;;62.57;56.83;;;;;;;;;;5014376;28;20213;-63
2022/03/18 04:12:45;;;;;;;62.15;56.20;;;;;;;;;;5014629;28;20413;-63
2022/03/18 04:15:11;;;;;;;55.80;50.90;;;;;;;;;;5014561;28;20665;-63
2022/03/18 04:17:41;;;;;;;56.87;51.67;;;;;;;;;;5014589;28;20407;-63
2022/03/18 04:20:09;;;;;;;61.28;55.38;;;;;;;;;;5013502;28;20432;-63
2022/03/18 04:22:35;;;;;;;43.25;39.92;;;;;;;;;;4997162;28;20765;-64
2022/03/18 04:25:01;;;;;;;54.22;49.03;;;;;;;;;;5014470;28;20381;-63
2022/03/18 04:27:27;;;;;;;64.47;57.97;;;;;;;;;;5014417;28;20184;-63
2022/03/18 04:29:53;;;;;;;61.70;55.40;;;;;;;;;;5014041;28;20852;-63
2022/03/18 04:32:19;;;;;;;58.38;52.88;;;;;;;;;;5005213;28;20189;-63
2022/03/18 04:34:45;;;;;;;57.42;51.88;;;;;;;;;;5008823;28;20261;-63
2022/03/18 04:37:11;;;;;;;63.67;57.27;;;;;;;;;;4994550;28;20179;-64
2022/03/18 04:39:37;;;;;;;64.90;58.40;;;;;;;;;;4994497;28;20409;-63
2022/03/18 04:42:03;;;;;;;59.67;53.55;;;;;;;;;;4994253;28;20181;-63
2022/03/18 04:44:29;;;;;;;64.60;58.10;;;;;;;;;;4994044;28;20265;-63
2022/03/18 04:46:55;;;;;;;63.63;57.63;;;;;;;;;;4992780;28;20190;-63
2022/03/18 04:49:21;;;;;;;58.17;52.67;;;;;;;;;;4992430;28;20217;-63
2022/03/18 04:51:47;;;;;;;65.30;58.60;;;;;;;;;;4993509;28;20406;-63
2022/03/18 04:54:13;;;;;;;48.70;44.90;;;;;;;;;;4994411;28;20181;-63
2022/03/18 04:59:24;;;;;;;54.78;50.00;;;;;;;;;;4994473;28;20416;-63
2022/03/18 05:01:50;;;;;;;52.17;47.60;;;;;;;;;;4993986;28;20171;-63
2022/03/18 05:04:16;;;;;;;55.30;50.50;;;;;;;;;;4994100;28;20441;-63
2022/03/18 05:06:42;;;;;;;52.57;47.97;;;;;;;;;;4994062;28;20773;-63
2022/03/18 05:09:08;;;;;;;55.10;50.40;;;;;;;;;;4993913;28;20802;-63
2022/03/18 05:11:34;;;;;;;21.57;20.53;;;;;;;;;;4993723;28;20857;-63
2022/03/18 05:14:00;;;;;;;48.10;44.50;;;;;;;;;;4993986;28;20401;-63
2022/03/18 05:16:26;;;;;;;44.37;40.97;;;;;;;;;;4993926;28;20397;-63
2022/03/18 05:18:52;;;;;;;56.15;51.20;;;;;;;;;;4993840;28;20410;-63
2022/03/18 05:21:19;;;;;;;34.70;32.58;;;;;;;;;;4993564;28;20204;-63
2022/03/18 05:23:46;;;;;;;34.00;31.90;;;;;;;;;;4993682;28;20171;-62
2022/03/18 05:26:12;;;;;;;36.53;34.15;;;;;;;;;;4993726;28;20561;-63
2022/03/18 05:28:38;;;;;;;36.83;34.60;;;;;;;;;;4993206;28;20181;-64
2022/03/18 05:31:04;;;;;;;65.20;59.20;;;;;;;;;;5015706;22;20493;-60
2022/03/18 05:33:29;;;;;;;63.28;57.38;;;;;;;;;;4991178;28;20441;-60
2022/03/18 05:35:55;;;;;;;53.63;48.93;;;;;;;;;;4999449;28;20809;-61
2022/03/18 05:38:21;;;;;;;60.00;54.40;;;;;;;;;;4993205;28;20441;-61
2022/03/18 05:40:47;;;;;;;53.87;49.17;;;;;;;;;;4992970;28;20422;-61
2022/03/18 05:43:13;;;;;;;51.00;46.90;;;;;;;;;;4993303;28;20409;-60
2022/03/18 05:45:39;;;;;;;55.67;50.58;;;;;;;;;;4993253;28;20845;-61
2022/03/18 05:48:07;;;;;;;59.30;53.80;;;;;;;;;;4993187;28;20206;-61
2022/03/18 05:50:33;;;;;;;55.13;50.28;;;;;;;;;;4992615;28;20463;-61
2022/03/18 05:52:59;;;;;;;58.67;53.33;;;;;;;;;;4992961;28;20174;-61
2022/03/18 05:55:26;;;;;;;53.73;48.93;;;;;;;;;;4993092;28;20178;-60
2022/03/18 05:57:52;;;;;;;72.18;66.03;;;;;;;;;;4991491;28;20862;-60
2022/03/18 06:00:18;;;;;;;57.97;52.97;;;;;;;;;;4992547;28;20198;-61
2022/03/18 06:02:45;;;;;;;53.90;49.20;;;;;;;;;;4992768;28;20182;-59
2022/03/18 06:05:11;;;;;;;58.47;53.17;;;;;;;;;;4992881;28;20196;-61
2022/03/18 06:07:38;;;;;;;60.20;54.65;;;;;;;;;;4992741;28;20213;-61
2022/03/18 06:12:49;;;;;;;55.15;50.05;;;;;;;;;;4993008;28;20197;-60
2022/03/18 06:15:15;;;;;;;45.13;41.63;;;;;;;;;;4992609;28;20170;-61
2022/03/18 06:17:41;;;;;;;56.05;51.05;;;;;;;;;;4992616;28;20403;-60
2022/03/18 06:20:07;;;;;;;50.07;45.73;;;;;;;;;;4991948;28;20213;-61
2022/03/18 06:22:33;;;;;;;62.30;56.50;;;;;;;;;;4992380;28;20906;-59
2022/03/18 06:24:59;;;;;;;52.13;47.72;;;;;;;;;;4992303;28;20190;-61
2022/03/18 06:27:25;;;;;;;30.70;28.87;;;;;;;;;;4992476;28;20183;-61
2022/03/18 06:29:51;;;;;;;17.87;17.17;;;;;;;;;;4990025;28;20465;-60
2022/03/18 06:32:17;;;;;;;29.60;28.00;;;;;;;;;;4991625;28;20425;-59
2022/03/18 06:34:43;;;;;;;39.23;36.87;;;;;;;;;;4989571;28;20457;-61
2022/03/18 06:37:09;;;;;;;35.63;33.37;;;;;;;;;;4992126;28;20408;-59
2022/03/18 06:39:36;;;;;;;58.63;53.43;;;;;;;;;;4992320;28;20464;-61
2022/03/18 06:42:04;;;;;;;58.17;53.17;;;;;;;;;;4991327;28;20433;-61
2022/03/18 06:44:30;;;;;;;56.72;51.63;;;;;;;;;;4991845;28;20178;-60
2022/03/18 06:46:56;;;;;;;57.50;52.10;;;;;;;;;;4991872;28;20262;-61
2022/03/18 06:49:22;;;;;;;65.73;59.53;;;;;;;;;;4991852;28;20832;-61
2022/03/18 06:51:48;;;;;;;59.28;53.58;;;;;;;;;;4990889;28;20432;-60
2022/03/18 06:54:14;;;;;;;61.75;56.25;;;;;;;;;;4991130;28;20605;-60
2022/03/18 06:56:40;;;;;;;53.47;49.23;;;;;;;;;;4990820;28;20233;-61
2022/03/18 06:59:06;;;;;;;48.65;45.10;;;;;;;;;;4990756;28;20504;-61
2022/03/18 07:01:32;;;;;;;46.17;42.80;;;;;;;;;;4990786;28;20336;-59
2022/03/18 07:03:58;;;;;;;43.30;40.28;;;;;;;;;;4990614;28;20273;-61
2022/03/18 07:06:24;;;;;;;36.40;34.17;;;;;;;;;;4989340;28;20297;-60
2022/03/18 07:08:50;;;;;;;47.57;44.17;;;;;;;;;;4989107;28;20991;-59
2022/03/18 07:11:16;;;;;;;46.28;42.80;;;;;;;;;;4989471;28;20483;-59
2022/03/18 07:13:43;;;;;;;61.83;56.55;;;;;;;;;;4990240;28;20182;-57
2022/03/18 07:18:53;;;;;;;53.75;49.22;;;;;;;;;;4988717;28;20569;-61
2022/03/18 07:21:19;;;;;;;55.40;50.90;;;;;;;;;;4990396;28;20202;-60
2022/03/18 07:23:45;;;;;;;50.63;46.60;;;;;;;;;;4990771;28;20500;-60
2022/03/18 07:26:11;;;;;;;47.45;43.97;;;;;;;;;;4990729;28;20797;-57
2022/03/18 07:28:37;;;;;;;45.67;42.43;;;;;;;;;;4989285;28;20192;-60
2022/03/18 07:31:03;;;;;;;40.08;37.50;;;;;;;;;;4989921;28;20456;-58
2022/03/18 07:33:30;;;;;;;24.73;23.52;;;;;;;;;;4990331;28;20170;-59
2022/03/18 07:35:56;;;;;;;43.05;40.13;;;;;;;;;;4990396;28;20231;-55
2022/03/18 07:38:22;;;;;;;50.28;46.38;;;;;;;;;;4990614;28;20178;-57
2022/03/18 07:40:48;;;;;;;51.53;47.63;;;;;;;;;;4989731;28;20223;-58
2022/03/18 07:43:15;;;;;;;50.97;47.33;;;;;;;;;;4988295;28;20184;-61
2022/03/18 07:45:41;;;;;;;34.10;32.13;;;;;;;;;;4988854;28;20253;-60
2022/03/18 07:48:08;;;;;;;45.03;41.90;;;;;;;;;;4989746;28;20606;-59
2022/03/18 07:50:35;;;;;;;52.88;48.88;;;;;;;;;;4987938;28;20488;-61
2022/03/18 07:53:04;;;;;;;48.42;44.72;;;;;;;;;;4990030;28;20177;-62
2022/03/18 07:55:31;;;;;;;47.28;43.88;;;;;;;;;;4992695;28;20171;-62
2022/03/18 07:57:57;;;;;;;55.10;50.90;;;;;;;;;;4992711;28;20269;-60
2022/03/18 08:00:23;;;;;;;52.45;48.60;;;;;;;;;;4992180;28;20228;-58
2022/03/18 08:02:50;;;;;;;56.58;52.13;;;;;;;;;;4995637;28;20190;-60
2022/03/18 08:05:16;;;;;;;61.05;56.35;;;;;;;;;;4994307;28;20170;-59
2022/03/18 08:07:44;;;;;;;52.80;49.00;;;;;;;;;;4993786;28;20178;-60
2022/03/18 08:10:10;;;;;;;49.47;45.80;;;;;;;;;;4993097;28;20210;-61
2022/03/18 08:12:40;;;;;;;63.55;59.30;;;;;;;;;;4992112;28;20174;-62
2022/03/18 08:15:09;;;;;;;45.88;42.63;;;;;;;;;;4993590;28;20252;-60
2022/03/18 08:17:35;;;;;;;58.00;53.40;;;;;;;;;;4993298;28;20170;-61
2022/03/18 08:20:01;;;;;;;53.93;49.90;;;;;;;;;;4992977;28;20650;-60
2022/03/18 08:22:27;;;;;;;58.05;53.35;;;;;;;;;;4992711;28;20505;-62
2022/03/18 08:24:53;;;;;;;62.17;57.08;;;;;;;;;;4992104;28;20182;-61
2022/03/18 08:27:20;;;;;;;67.45;61.65;;;;;;;;;;4996148;28;20201;-61
2022/03/18 08:29:46;;;;;;;63.42;58.35;;;;;;;;;;4994016;28;20681;-55
2022/03/18 08:32:13;;;;;;;64.88;59.08;;;;;;;;;;4993013;28;20193;-58
2022/03/18 08:34:39;;;;;;;67.00;61.58;;;;;;;;;;4990216;28;20181;-60
2022/03/18 08:37:05;;;;;;;58.97;54.27;;;;;;;;;;4993097;28;20548;-59
2022/03/18 08:39:32;;;;;;;63.95;58.60;;;;;;;;;;4992992;28;20449;-60
2022/03/18 08:41:58;;;;;;;63.47;58.28;;;;;;;;;;4992765;28;20705;-61
2022/03/18 08:44:24;;;;;;;75.97;69.47;;;;;;;;;;4993408;28;20175;-60
2022/03/18 08:46:50;;;;;;;67.50;61.40;;;;;;;;;;4993213;28;20968;-61
2022/03/18 08:49:16;;;;;;;58.00;53.50;;;;;;;;;;4991547;28;20206;-60
2022/03/18 08:51:42;;;;;;;63.95;58.60;;;;;;;;;;4992165;28;20441;-56
2022/03/18 08:54:09;;;;;;;56.90;52.47;;;;;;;;;;4992300;28;20178;-59
2022/03/18 08:56:35;;;;;;;62.17;57.40;;;;;;;;;;4991750;28;20190;-60
2022/03/18 08:59:06;;;;;;;64.65;59.65;;;;;;;;;;4992487;28;20546;-59
2022/03/18 09:01:32;;;;;;;60.33;55.75;;;;;;;;;;4992016;28;20224;-61
2022/03/18 09:03:58;;;;;;;54.33;50.47;;;;;;;;;;4992583;28;20637;-61
2022/03/18 09:06:24;;;;;;;66.30;61.30;;;;;;;;;;4992493;28;20214;-60
2022/03/18 09:08:50;;;;;;;70.80;65.10;;;;;;;;;;4991606;28;20553;-61
2022/03/18 09:11:16;;;;;;;61.10;56.47;;;;;;;;;;4991680;28;20876;-61
2022/03/18 09:13:42;;;;;;;49.03;45.53;;;;;;;;;;4992185;28;20416;-58
2022/03/18 09:16:08;;;;;;;65.45;60.25;;;;;;;;;;4990056;28;20476;-61
2022/03/18 09:18:34;;;;;;;60.67;56.15;;;;;;;;;;4991649;28;20229;-59
2022/03/18 09:21:00;;;;;;;52.57;48.87;;;;;;;;;;4991900;28;20202;-60
2022/03/18 09:23:26;;;;;;;48.07;44.90;;;;;;;;;;4994739;28;20418;-59
2022/03/18 09:25:52;;;;;;;45.87;42.97;;;;;;;;;;4993308;28;20421;-59
2022/03/18 09:28:18;;;;;;;52.50;48.80;;;;;;;;;;4993344;28;20413;-60
2022/03/18 09:30:44;;;;;;;57.72;53.70;;;;;;;;;;4991894;28;20781;-60
2022/03/18 09:33:10;;;;;;;41.78;39.28;;;;;;;;;;4993128;28;20175;-61
2022/03/18 09:35:37;;;;;;;32.40;30.70;;;;;;;;;;4993017;28;20300;-61
2022/03/18 09:38:03;;;;;;;43.00;40.47;;;;;;;;;;4993171;28;20539;-58
2022/03/18 09:40:29;;;;;;;54.25;50.65;;;;;;;;;;4992657;28;20209;-59
2022/03/18 09:43:03;;;;;;;58.97;54.90;;;;;;;;;;4991140;28;20257;-58
2022/03/18 09:45:33;;;;;;;53.78;50.25;;;;;;;;;;4992696;28;20189;-60
2022/03/18 09:47:59;;;;;;;58.35;54.25;;;;;;;;;;4992360;28;20586;-60
2022/03/18 09:50:26;;;;;;;77.60;71.80;;;;;;;;;;4991863;28;20924;-58
2022/03/18 09:52:52;;;;;;;71.30;65.50;;;;;;;;;;4990674;28;20183;-60
2022/03/18 09:55:18;;;;;;;67.00;62.10;;;;;;;;;;4992429;28;20716;-59
2022/03/18 09:57:44;;;;;;;76.43;70.82;;;;;;;;;;4992316;28;20178;-60
2022/03/18 10:00:10;;;;;;;74.93;69.43;;;;;;;;;;4992011;28;20198;-60
2022/03/18 10:02:36;;;;;;;83.97;78.28;;;;;;;;;;4992199;28;20266;-61
2022/03/18 10:05:15;;;;;;;56.83;53.42;;;;;;;;;;4990515;28;20551;-61
2022/03/18 10:07:53;;;;;;;64.15;60.20;;;;;;;;;;4991356;28;20177;-59
2022/03/18 10:10:20;;;;;;;90.72;85.00;;;;;;;;;;4990674;28;20212;-60
2022/03/18 10:12:47;;;;;;;106.82;99.85;;;;;;;;;;4991711;28;20237;-61
2022/03/18 10:15:18;;;;;;;106.70;100.28;;;;;;;;;;4990656;28;20166;-61
2022/03/18 10:17:48;;;;;;;110.77;104.50;;;;;;;;;;4990593;28;20587;-59
2022/03/18 10:20:34;;;;;;;114.03;107.63;;;;;;;;;;4990495;28;20440;-60
2022/03/18 10:23:04;;;;;;;117.15;110.85;;;;;;;;;;4991174;28;20460;-62
2022/03/18 10:25:36;;;;;;;119.03;112.73;;;;;;;;;;4991096;28;20201;-61
2022/03/18 10:28:03;;;;;;;105.77;100.17;;;;;;;;;;4989395;28;20923;-61
2022/03/18 10:30:29;;;;;;;115.33;109.20;;;;;;;;;;4990364;28;20595;-60
2022/03/18 10:32:55;;;;;;;126.67;119.57;;;;;;;;;;4989540;28;20428;-59
2022/03/18 10:38:30;;;;;;;85.25;80.93;;;;;;;;;;4987151;28;20475;-60
2022/03/18 10:40:56;;;;;;;63.40;60.33;;;;;;;;;;4990774;28;20277;-59
2022/03/18 10:43:22;;;;;;;75.03;71.13;;;;;;;;;;4990985;28;20409;-62
2022/03/18 10:46:05;;;;;;;90.67;85.87;;;;;;;;;;4990944;28;20484;-59
2022/03/18 10:48:31;;;;;;;100.40;94.87;;;;;;;;;;4989297;28;21924;-60
2022/03/18 10:51:08;;;;;;;67.23;63.93;;;;;;;;;;4986850;28;20464;-55
2022/03/18 10:53:35;;;;;;;93.80;89.03;;;;;;;;;;4989485;28;20451;-61
2022/03/18 10:56:02;;;;;;;122.00;115.40;;;;;;;;;;4989584;28;20848;-60
2022/03/18 10:58:32;;;;;;;110.97;105.27;;;;;;;;;;4991652;28;20409;-62
2022/03/18 11:00:59;;;;;;;138.27;130.87;;;;;;;;;;4990851;28;20432;-62
2022/03/18 11:03:26;;;;;;;134.63;128.07;;;;;;;;;;4991991;28;20409;-61
2022/03/18 11:05:52;;;;;;;120.97;115.30;;;;;;;;;;4992230;28;20409;-61
2022/03/18 11:08:22;;;;;;;126.57;120.47;;;;;;;;;;4991888;28;20404;-60
2022/03/18 11:11:07;;;;;;;124.47;118.43;;;;;;;;;;4991191;28;21071;-61
2022/03/18 11:13:52;;;;;;;130.27;123.63;;;;;;;;;;4992066;28;20433;-60
2022/03/18 11:16:19;;;;;;;124.27;117.67;;;;;;;;;;4991600;28;21043;-61
2022/03/18 11:18:46;;;;;;;135.70;128.30;;;;;;;;;;4991452;28;20768;-58
2022/03/18 11:21:13;;;;;;;107.60;101.90;;;;;;;;;;4990766;28;20240;-59
2022/03/18 11:23:40;;;;;;;114.68;108.53;;;;;;;;;;4990855;28;20298;-58
2022/03/18 11:26:06;;;;;;;91.90;87.37;;;;;;;;;;4991665;28;20312;-60
2022/03/18 11:28:32;;;;;;;27.13;26.20;;;;;;;;;;4992803;28;20829;-61
2022/03/18 11:31:02;;;;;;;42.67;40.97;;;;;;;;;;5023654;22;20541;-63
2022/03/18 11:33:29;;;;;;;34.80;33.50;;;;;;;;;;5013800;28;20462;-63
2022/03/18 11:35:55;;;;;;;53.85;51.42;;;;;;;;;;5015322;28;20408;-62
2022/03/18 11:38:30;;;;;;;101.60;96.20;;;;;;;;;;5009808;28;20181;-64
2022/03/18 11:41:00;;;;;;;88.32;83.70;;;;;;;;;;5007065;28;20424;-63
2022/03/18 11:43:30;;;;;;;67.33;63.97;;;;;;;;;;5010200;28;20211;-63
2022/03/18 11:46:16;;;;;;;42.67;40.87;;;;;;;;;;5005700;28;20404;-63
2022/03/18 11:48:49;;;;;;;37.38;35.97;;;;;;;;;;5004341;28;20460;-63
2022/03/18 11:51:26;;;;;;;29.87;28.80;;;;;;;;;;5002934;28;20209;-63
2022/03/18 11:53:54;;;;;;;38.30;36.80;;;;;;;;;;5005535;28;20445;-63
2022/03/18 11:56:22;;;;;;;75.67;71.97;;;;;;;;;;5011225;28;20177;-64
2022/03/18 11:58:48;;;;;;;96.27;91.57;;;;;;;;;;4992420;28;20567;-63
2022/03/18 12:01:32;;;;;;;89.93;85.60;;;;;;;;;;5007456;28;20431;-63
2022/03/18 12:03:58;;;;;;;113.73;107.73;;;;;;;;;;5005052;28;20415;-63
2022/03/18 12:06:24;;;;;;;80.80;77.00;;;;;;;;;;4995259;28;20416;-63
2022/03/18 12:08:53;;;;;;;114.17;108.57;;;;;;;;;;4995194;28;20429;-63
2022/03/18 12:11:26;;;;;;;122.90;116.70;;;;;;;;;;4994843;28;20426;-63
2022/03/18 12:13:51;;;;;;;72.93;69.70;;;;;;;;;;4994973;28;20417;-63
2022/03/18 12:16:21;;;;;;;58.90;56.37;;;;;;;;;;4994607;28;20418;-63
2022/03/18 12:18:47;;;;;;;101.00;96.27;;;;;;;;;;4994122;28;20413;-63
2022/03/18 12:21:14;;;;;;;88.60;84.40;;;;;;;;;;4994496;28;20812;-64
2022/03/18 12:23:40;;;;;;;93.23;88.67;;;;;;;;;;4994829;28;20439;-63
2022/03/18 12:26:07;;;;;;;67.82;64.63;;;;;;;;;;4994885;28;20928;-62
2022/03/18 12:28:49;;;;;;;66.57;63.30;;;;;;;;;;4994694;28;20175;-62
2022/03/18 12:31:20;;;;;;;34.60;33.30;;;;;;;;;;4994262;28;20487;-63
2022/03/18 12:33:46;;;;;;;33.83;32.53;;;;;;;;;;4994755;28;20406;-63
2022/03/18 12:36:13;;;;;;;64.10;60.90;;;;;;;;;;5003964;28;20181;-63
2022/03/18 12:38:45;;;;;;;41.47;39.73;;;;;;;;;;5006617;28;20474;-63
2022/03/18 12:41:12;;;;;;;34.92;33.58;;;;;;;;;;5006806;28;20431;-63
2022/03/18 12:43:37;;;;;;;37.22;35.72;;;;;;;;;;5005689;28;20704;-63
2022/03/18 12:46:04;;;;;;;45.10;43.10;;;;;;;;;;5006140;28;20262;-63
2022/03/18 12:48:30;;;;;;;45.53;43.53;;;;;;;;;;4997552;28;20419;-63
2022/03/18 12:50:58;;;;;;;28.73;27.70;;;;;;;;;;5000432;28;20212;-63
2022/03/18 12:53:26;;;;;;;60.63;57.53;;;;;;;;;;5011611;28;20412;-63
2022/03/18 12:56:02;;;;;;;67.38;63.88;;;;;;;;;;5011650;28;20173;-63
2022/03/18 12:58:28;;;;;;;65.43;62.03;;;;;;;;;;5012119;28;20189;-63
2022/03/18 13:00:56;;;;;;;62.42;59.33;;;;;;;;;;5013033;28;20216;-63
2022/03/18 13:03:26;;;;;;;59.27;56.47;;;;;;;;;;5013896;28;20671;-63
2022/03/18 13:05:52;;;;;;;49.47;47.27;;;;;;;;;;5013539;28;20413;-63
2022/03/18 13:08:19;;;;;;;55.70;53.10;;;;;;;;;;5013424;28;20407;-63
2022/03/18 13:10:58;;;;;;;48.27;46.17;;;;;;;;;;5012918;28;21169;-62
2022/03/18 13:13:26;;;;;;;45.83;43.90;;;;;;;;;;5013471;28;20404;-63
2022/03/18 13:16:01;;;;;;;57.70;54.90;;;;;;;;;;5013442;28;20918;-63
2022/03/18 13:18:31;;;;;;;55.87;53.27;;;;;;;;;;5013331;28;20740;-63
2022/03/18 13:20:58;;;;;;;69.77;66.17;;;;;;;;;;5012907;28;20424;-63
2022/03/18 13:23:24;;;;;;;81.70;77.37;;;;;;;;;;5012894;28;20740;-63
2022/03/18 13:25:50;;;;;;;60.30;57.33;;;;;;;;;;5007469;28;20456;-63
2022/03/18 13:28:17;;;;;;;65.05;61.85;;;;;;;;;;5006281;28;20495;-63
2022/03/18 13:33:39;;;;;;;71.07;67.47;;;;;;;;;;5006706;28;20409;-63
2022/03/18 13:36:05;;;;;;;51.60;49.30;;;;;;;;;;5012912;28;20435;-64
2022/03/18 13:38:32;;;;;;;70.17;66.70;;;;;;;;;;5007483;28;20181;-63
2022/03/18 13:41:03;;;;;;;80.33;76.30;;;;;;;;;;4989601;28;20815;-64
2022/03/18 13:43:30;;;;;;;96.67;91.37;;;;;;;;;;5010904;28;20435;-63
2022/03/18 13:46:17;;;;;;;102.13;96.53;;;;;;;;;;5011938;28;20400;-63
2022/03/18 13:48:45;;;;;;;82.57;78.07;;;;;;;;;;5012571;28;20424;-63
2022/03/18 13:51:12;;;;;;;74.18;70.28;;;;;;;;;;5011531;28;20217;-63
2022/03/18 13:53:39;;;;;;;68.63;65.03;;;;;;;;;;5010305;28;20166;-63
2022/03/18 13:56:15;;;;;;;79.55;75.35;;;;;;;;;;5010716;28;20462;-63
2022/03/18 13:58:42;;;;;;;41.50;39.80;;;;;;;;;;5010694;28;20177;-62
2022/03/18 14:01:15;;;;;;;26.40;25.50;;;;;;;;;;5010514;28;21064;-63
2022/03/18 14:03:42;;;;;;;22.23;21.53;;;;;;;;;;5010667;28;20640;-63
2022/03/18 14:06:09;;;;;;;23.20;22.40;;;;;;;;;;5010766;28;20446;-63
2022/03/18 14:08:39;;;;;;;24.73;23.83;;;;;;;;;;5012236;28;20415;-63
2022/03/18 14:12:08;;;;;;;43.77;41.87;;;;;;;;;;5012132;28;20259;-63
2022/03/18 14:13:51;;;;;;;89.50;84.53;;;;;;;;;;5012160;28;20413;-63
2022/03/18 14:16:17;;;;;;;80.40;75.80;;;;;;;;;;5012428;28;20720;-63
2022/03/18 14:18:44;;;;;;;86.60;81.50;;;;;;;;;;5012459;28;20912;-63
2022/03/18 14:21:11;;;;;;;79.43;74.93;;;;;;;;;;4994634;28;20836;-63
2022/03/18 14:23:42;;;;;;;62.10;58.95;;;;;;;;;;5012280;28;20182;-63
2022/03/18 14:26:10;;;;;;;86.65;81.75;;;;;;;;;;5012309;28;20177;-63
2022/03/18 14:28:37;;;;;;;70.35;66.65;;;;;;;;;;5012327;28;20362;-63
2022/03/18 14:31:06;;;;;;;50.63;48.30;;;;;;;;;;5011738;28;20223;-63
2022/03/18 14:33:33;;;;;;;59.05;56.15;;;;;;;;;;5012294;28;20413;-63
2022/03/18 14:36:00;;;;;;;71.77;68.07;;;;;;;;;;5012082;28;20668;-63